sensor_id;sensor_type;location;lat;lon;timestamp;temperature;humidity
12911;DHT22;6523;49.758;6.120;2023-03-14T00:00:31;9.80;99.90
12911;DHT22;6523;49.758;6.120;2023-03-14T00:02:56;9.80;99.90
12911;DHT22;6523;49.758;6.120;2023-03-14T00:05:22;9.80;99.90
12911;DHT22;6523;49.758;6.120;2023-03-14T00:07:48;9.80;99.90
12911;DHT22;6523;49.758;6.120;2023-03-14T00:10:14;9.80;99.90
12911;DHT22;6523;49.758;6.120;2023-03-14T00:12:41;9.80;99.90
12911;DHT22;6523;49.758;6.120;2023-03-14T00:15:07;9.90;99.90
12911;DHT22;6523;49.758;6.120;2023-03-14T00:17:34;9.80;99.90
12911;DHT22;6523;49.758;6.120;2023-03-14T00:20:00;9.90;99.90
12911;DHT22;6523;49.758;6.120;2023-03-14T00:22:37;9.90;99.90
12911;DHT22;6523;49.758;6.120;2023-03-14T00:25:03;9.80;99.90
12911;DHT22;6523;49.758;6.120;2023-03-14T00:27:29;9.90;99.90
12911;DHT22;6523;49.758;6.120;2023-03-14T00:29:55;9.90;99.90
12911;DHT22;6523;49.758;6.120;2023-03-14T00:32:20;9.80;99.90
12911;DHT22;6523;49.758;6.120;2023-03-14T00:34:46;9.70;99.90
12911;DHT22;6523;49.758;6.120;2023-03-14T00:37:11;9.60;99.90
12911;DHT22;6523;49.758;6.120;2023-03-14T00:39:37;9.60;99.90
12911;DHT22;6523;49.758;6.120;2023-03-14T00:42:03;9.50;99.90
12911;DHT22;6523;49.758;6.120;2023-03-14T00:44:28;9.50;99.90
12911;DHT22;6523;49.758;6.120;2023-03-14T00:46:54;9.50;99.90
12911;DHT22;6523;49.758;6.120;2023-03-14T00:49:19;9.50;99.90
12911;DHT22;6523;49.758;6.120;2023-03-14T00:51:45;9.40;99.90
12911;DHT22;6523;49.758;6.120;2023-03-14T00:54:11;9.30;99.90
12911;DHT22;6523;49.758;6.120;2023-03-14T00:56:36;9.50;99.90
12911;DHT22;6523;49.758;6.120;2023-03-14T00:59:02;9.40;99.90
12911;DHT22;6523;49.758;6.120;2023-03-14T01:01:27;9.50;99.90
12911;DHT22;6523;49.758;6.120;2023-03-14T01:03:54;9.50;99.90
12911;DHT22;6523;49.758;6.120;2023-03-14T01:06:25;9.50;99.90
12911;DHT22;6523;49.758;6.120;2023-03-14T01:08:52;9.50;99.90
12911;DHT22;6523;49.758;6.120;2023-03-14T01:11:21;9.50;99.90
12911;DHT22;6523;49.758;6.120;2023-03-14T01:13:47;9.50;99.90
12911;DHT22;6523;49.758;6.120;2023-03-14T01:16:14;9.50;99.90
12911;DHT22;6523;49.758;6.120;2023-03-14T01:18:41;9.60;99.90
12911;DHT22;6523;49.758;6.120;2023-03-14T01:21:18;9.60;99.90
12911;DHT22;6523;49.758;6.120;2023-03-14T01:23:45;9.70;99.90
12911;DHT22;6523;49.758;6.120;2023-03-14T01:26:13;9.60;99.90
12911;DHT22;6523;49.758;6.120;2023-03-14T01:28:39;9.70;99.90
12911;DHT22;6523;49.758;6.120;2023-03-14T01:31:06;9.70;99.90
12911;DHT22;6523;49.758;6.120;2023-03-14T01:33:33;9.60;99.90
12911;DHT22;6523;49.758;6.120;2023-03-14T01:35:58;9.60;99.90
12911;DHT22;6523;49.758;6.120;2023-03-14T01:38:24;9.60;99.90
12911;DHT22;6523;49.758;6.120;2023-03-14T01:40:50;9.60;99.90
12911;DHT22;6523;49.758;6.120;2023-03-14T01:43:18;9.60;99.90
12911;DHT22;6523;49.758;6.120;2023-03-14T01:48:35;9.30;99.90
12911;DHT22;6523;49.758;6.120;2023-03-14T01:51:02;9.20;99.90
12911;DHT22;6523;49.758;6.120;2023-03-14T01:53:28;9.10;99.90
12911;DHT22;6523;49.758;6.120;2023-03-14T01:55:54;9.20;99.90
12911;DHT22;6523;49.758;6.120;2023-03-14T01:58:22;9.20;99.90
12911;DHT22;6523;49.758;6.120;2023-03-14T02:00:49;9.20;99.90
12911;DHT22;6523;49.758;6.120;2023-03-14T02:03:17;9.10;99.90
12911;DHT22;6523;49.758;6.120;2023-03-14T02:05:44;9.10;99.90
12911;DHT22;6523;49.758;6.120;2023-03-14T02:08:20;9.20;99.90
12911;DHT22;6523;49.758;6.120;2023-03-14T02:10:48;9.10;99.90
12911;DHT22;6523;49.758;6.120;2023-03-14T02:13:17;9.10;99.90
12911;DHT22;6523;49.758;6.120;2023-03-14T02:15:43;9.00;99.90
12911;DHT22;6523;49.758;6.120;2023-03-14T02:18:10;8.90;99.90
12911;DHT22;6523;49.758;6.120;2023-03-14T02:23:09;8.80;99.90
12911;DHT22;6523;49.758;6.120;2023-03-14T02:28:14;8.70;99.90
12911;DHT22;6523;49.758;6.120;2023-03-14T02:30:40;8.70;99.90
12911;DHT22;6523;49.758;6.120;2023-03-14T02:33:11;8.60;99.90
12911;DHT22;6523;49.758;6.120;2023-03-14T02:38:33;8.60;99.90
12911;DHT22;6523;49.758;6.120;2023-03-14T02:41:01;8.60;99.90
12911;DHT22;6523;49.758;6.120;2023-03-14T02:43:27;8.50;99.90
12911;DHT22;6523;49.758;6.120;2023-03-14T02:45:52;8.60;99.90
12911;DHT22;6523;49.758;6.120;2023-03-14T02:48:24;8.50;99.90
12911;DHT22;6523;49.758;6.120;2023-03-14T02:50:53;8.60;99.90
12911;DHT22;6523;49.758;6.120;2023-03-14T02:53:23;8.50;99.90
12911;DHT22;6523;49.758;6.120;2023-03-14T02:55:49;8.60;99.90
12911;DHT22;6523;49.758;6.120;2023-03-14T02:58:15;8.60;99.90
12911;DHT22;6523;49.758;6.120;2023-03-14T03:00:41;8.60;99.90
12911;DHT22;6523;49.758;6.120;2023-03-14T03:03:07;8.60;99.90
12911;DHT22;6523;49.758;6.120;2023-03-14T03:05:33;8.60;99.90
12911;DHT22;6523;49.758;6.120;2023-03-14T03:07:58;8.60;99.90
12911;DHT22;6523;49.758;6.120;2023-03-14T03:10:24;8.60;99.90
12911;DHT22;6523;49.758;6.120;2023-03-14T03:12:50;8.60;99.90
12911;DHT22;6523;49.758;6.120;2023-03-14T03:15:17;8.60;99.90
12911;DHT22;6523;49.758;6.120;2023-03-14T03:17:42;8.60;99.90
12911;DHT22;6523;49.758;6.120;2023-03-14T03:20:08;8.60;99.90
12911;DHT22;6523;49.758;6.120;2023-03-14T03:22:35;8.50;99.90
12911;DHT22;6523;49.758;6.120;2023-03-14T03:25:01;8.50;99.90
12911;DHT22;6523;49.758;6.120;2023-03-14T03:27:30;8.50;99.90
12911;DHT22;6523;49.758;6.120;2023-03-14T03:29:56;8.60;99.90
12911;DHT22;6523;49.758;6.120;2023-03-14T03:32:21;8.60;99.90
12911;DHT22;6523;49.758;6.120;2023-03-14T03:34:47;8.50;99.90
12911;DHT22;6523;49.758;6.120;2023-03-14T03:37:12;8.50;99.90
12911;DHT22;6523;49.758;6.120;2023-03-14T03:39:38;8.50;99.90
12911;DHT22;6523;49.758;6.120;2023-03-14T03:42:03;8.50;99.90
12911;DHT22;6523;49.758;6.120;2023-03-14T03:44:29;8.50;99.90
12911;DHT22;6523;49.758;6.120;2023-03-14T03:46:54;8.50;99.90
12911;DHT22;6523;49.758;6.120;2023-03-14T03:49:20;8.50;99.90
12911;DHT22;6523;49.758;6.120;2023-03-14T03:51:45;8.50;99.90
12911;DHT22;6523;49.758;6.120;2023-03-14T03:54:11;8.50;99.90
12911;DHT22;6523;49.758;6.120;2023-03-14T03:56:37;8.50;99.90
12911;DHT22;6523;49.758;6.120;2023-03-14T03:59:02;8.50;99.90
12911;DHT22;6523;49.758;6.120;2023-03-14T04:01:28;8.50;99.90
12911;DHT22;6523;49.758;6.120;2023-03-14T04:03:53;8.40;99.90
12911;DHT22;6523;49.758;6.120;2023-03-14T04:06:19;8.40;99.90
12911;DHT22;6523;49.758;6.120;2023-03-14T04:08:44;8.40;99.90
12911;DHT22;6523;49.758;6.120;2023-03-14T04:11:10;8.40;99.90
12911;DHT22;6523;49.758;6.120;2023-03-14T04:13:36;8.40;99.90
12911;DHT22;6523;49.758;6.120;2023-03-14T04:16:01;8.40;99.90
12911;DHT22;6523;49.758;6.120;2023-03-14T04:18:27;8.30;99.90
12911;DHT22;6523;49.758;6.120;2023-03-14T04:20:54;8.30;99.90
12911;DHT22;6523;49.758;6.120;2023-03-14T04:23:20;8.30;99.90
12911;DHT22;6523;49.758;6.120;2023-03-14T04:25:50;8.30;99.90
12911;DHT22;6523;49.758;6.120;2023-03-14T04:28:15;8.30;99.90
12911;DHT22;6523;49.758;6.120;2023-03-14T04:30:41;8.30;99.90
12911;DHT22;6523;49.758;6.120;2023-03-14T04:33:06;8.30;99.90
12911;DHT22;6523;49.758;6.120;2023-03-14T04:35:33;8.30;99.90
12911;DHT22;6523;49.758;6.120;2023-03-14T04:37:58;8.30;99.90
12911;DHT22;6523;49.758;6.120;2023-03-14T04:40:24;8.30;99.90
12911;DHT22;6523;49.758;6.120;2023-03-14T04:42:50;8.30;99.90
12911;DHT22;6523;49.758;6.120;2023-03-14T04:45:16;8.30;99.90
12911;DHT22;6523;49.758;6.120;2023-03-14T04:47:41;8.30;99.90
12911;DHT22;6523;49.758;6.120;2023-03-14T04:50:08;8.40;99.90
12911;DHT22;6523;49.758;6.120;2023-03-14T04:52:34;8.40;99.90
12911;DHT22;6523;49.758;6.120;2023-03-14T04:55:00;8.40;99.90
12911;DHT22;6523;49.758;6.120;2023-03-14T04:57:25;8.40;99.90
12911;DHT22;6523;49.758;6.120;2023-03-14T04:59:51;8.40;99.90
12911;DHT22;6523;49.758;6.120;2023-03-14T05:02:16;8.50;99.90
12911;DHT22;6523;49.758;6.120;2023-03-14T05:04:42;8.40;99.90
12911;DHT22;6523;49.758;6.120;2023-03-14T05:07:07;8.40;99.90
12911;DHT22;6523;49.758;6.120;2023-03-14T05:09:33;8.40;99.90
12911;DHT22;6523;49.758;6.120;2023-03-14T05:11:58;8.30;99.90
12911;DHT22;6523;49.758;6.120;2023-03-14T05:14:24;8.40;99.90
12911;DHT22;6523;49.758;6.120;2023-03-14T05:16:50;8.40;99.90
12911;DHT22;6523;49.758;6.120;2023-03-14T05:19:15;8.40;99.90
12911;DHT22;6523;49.758;6.120;2023-03-14T05:21:41;8.40;99.90
12911;DHT22;6523;49.758;6.120;2023-03-14T05:24:06;8.30;99.90
12911;DHT22;6523;49.758;6.120;2023-03-14T05:26:32;8.30;99.90
12911;DHT22;6523;49.758;6.120;2023-03-14T05:28:57;8.30;99.90
12911;DHT22;6523;49.758;6.120;2023-03-14T05:31:23;8.30;99.90
12911;DHT22;6523;49.758;6.120;2023-03-14T05:33:49;8.30;99.90
12911;DHT22;6523;49.758;6.120;2023-03-14T05:36:14;8.30;99.90
12911;DHT22;6523;49.758;6.120;2023-03-14T05:38:40;8.40;99.90
12911;DHT22;6523;49.758;6.120;2023-03-14T05:41:06;8.30;99.90
12911;DHT22;6523;49.758;6.120;2023-03-14T05:43:31;8.30;99.90
12911;DHT22;6523;49.758;6.120;2023-03-14T05:45:57;8.30;99.90
12911;DHT22;6523;49.758;6.120;2023-03-14T05:48:23;8.30;99.90
12911;DHT22;6523;49.758;6.120;2023-03-14T05:50:54;8.30;99.90
12911;DHT22;6523;49.758;6.120;2023-03-14T05:53:19;8.30;99.90
12911;DHT22;6523;49.758;6.120;2023-03-14T05:55:45;8.20;99.90
12911;DHT22;6523;49.758;6.120;2023-03-14T05:58:10;8.30;99.90
12911;DHT22;6523;49.758;6.120;2023-03-14T06:00:36;8.30;99.90
12911;DHT22;6523;49.758;6.120;2023-03-14T06:03:01;8.30;99.90
12911;DHT22;6523;49.758;6.120;2023-03-14T06:05:27;8.40;99.90
12911;DHT22;6523;49.758;6.120;2023-03-14T06:07:52;8.40;99.90
12911;DHT22;6523;49.758;6.120;2023-03-14T06:10:18;8.40;99.90
12911;DHT22;6523;49.758;6.120;2023-03-14T06:12:44;8.40;99.90
12911;DHT22;6523;49.758;6.120;2023-03-14T06:15:09;8.40;99.90
12911;DHT22;6523;49.758;6.120;2023-03-14T06:17:35;8.40;99.90
12911;DHT22;6523;49.758;6.120;2023-03-14T06:20:01;8.50;99.90
12911;DHT22;6523;49.758;6.120;2023-03-14T06:22:26;8.40;99.90
12911;DHT22;6523;49.758;6.120;2023-03-14T06:24:52;8.40;99.90
12911;DHT22;6523;49.758;6.120;2023-03-14T06:27:17;8.50;99.90
12911;DHT22;6523;49.758;6.120;2023-03-14T06:29:43;8.50;99.90
12911;DHT22;6523;49.758;6.120;2023-03-14T06:32:08;8.50;99.90
12911;DHT22;6523;49.758;6.120;2023-03-14T06:34:34;8.50;99.90
12911;DHT22;6523;49.758;6.120;2023-03-14T06:37:00;8.50;99.90
12911;DHT22;6523;49.758;6.120;2023-03-14T06:39:25;8.50;99.90
12911;DHT22;6523;49.758;6.120;2023-03-14T06:41:51;8.60;99.90
12911;DHT22;6523;49.758;6.120;2023-03-14T06:44:16;8.60;99.90
12911;DHT22;6523;49.758;6.120;2023-03-14T06:46:42;8.60;99.90
12911;DHT22;6523;49.758;6.120;2023-03-14T06:49:07;8.60;99.90
12911;DHT22;6523;49.758;6.120;2023-03-14T06:51:34;8.60;99.90
12911;DHT22;6523;49.758;6.120;2023-03-14T06:53:59;8.60;99.90
12911;DHT22;6523;49.758;6.120;2023-03-14T06:56:25;8.60;99.90
12911;DHT22;6523;49.758;6.120;2023-03-14T06:58:51;8.70;99.90
12911;DHT22;6523;49.758;6.120;2023-03-14T07:01:24;8.70;99.90
12911;DHT22;6523;49.758;6.120;2023-03-14T07:03:50;8.70;99.90
12911;DHT22;6523;49.758;6.120;2023-03-14T07:06:16;8.80;99.90
12911;DHT22;6523;49.758;6.120;2023-03-14T07:08:42;8.90;99.90
12911;DHT22;6523;49.758;6.120;2023-03-14T07:11:08;8.90;99.90
12911;DHT22;6523;49.758;6.120;2023-03-14T07:13:35;9.00;99.90
12911;DHT22;6523;49.758;6.120;2023-03-14T07:16:00;9.00;99.90
12911;DHT22;6523;49.758;6.120;2023-03-14T07:18:26;9.00;99.90
12911;DHT22;6523;49.758;6.120;2023-03-14T07:20:51;9.20;99.90
12911;DHT22;6523;49.758;6.120;2023-03-14T07:23:17;9.20;99.90
12911;DHT22;6523;49.758;6.120;2023-03-14T07:25:42;9.10;99.90
12911;DHT22;6523;49.758;6.120;2023-03-14T07:28:08;9.10;99.90
12911;DHT22;6523;49.758;6.120;2023-03-14T07:30:33;9.10;99.90
12911;DHT22;6523;49.758;6.120;2023-03-14T07:32:59;9.10;99.90
12911;DHT22;6523;49.758;6.120;2023-03-14T07:35:24;9.10;99.90
12911;DHT22;6523;49.758;6.120;2023-03-14T07:37:50;9.00;99.90
12911;DHT22;6523;49.758;6.120;2023-03-14T07:40:16;9.10;99.90
12911;DHT22;6523;49.758;6.120;2023-03-14T07:42:42;9.10;99.90
12911;DHT22;6523;49.758;6.120;2023-03-14T07:45:09;9.10;99.90
12911;DHT22;6523;49.758;6.120;2023-03-14T07:47:35;9.10;99.90
12911;DHT22;6523;49.758;6.120;2023-03-14T07:50:01;9.10;99.90
12911;DHT22;6523;49.758;6.120;2023-03-14T07:52:27;9.10;99.90
12911;DHT22;6523;49.758;6.120;2023-03-14T07:54:53;9.10;99.90
12911;DHT22;6523;49.758;6.120;2023-03-14T07:57:18;9.00;99.90
12911;DHT22;6523;49.758;6.120;2023-03-14T07:59:44;9.10;99.90
12911;DHT22;6523;49.758;6.120;2023-03-14T08:02:13;9.00;99.90
12911;DHT22;6523;49.758;6.120;2023-03-14T08:04:39;9.00;99.90
12911;DHT22;6523;49.758;6.120;2023-03-14T08:07:05;9.00;99.90
12911;DHT22;6523;49.758;6.120;2023-03-14T08:09:31;9.00;99.90
12911;DHT22;6523;49.758;6.120;2023-03-14T08:11:57;9.10;99.90
12911;DHT22;6523;49.758;6.120;2023-03-14T08:14:23;9.10;99.90
12911;DHT22;6523;49.758;6.120;2023-03-14T08:16:52;9.10;99.90
12911;DHT22;6523;49.758;6.120;2023-03-14T08:19:17;9.20;99.90
12911;DHT22;6523;49.758;6.120;2023-03-14T08:21:43;9.20;99.90
12911;DHT22;6523;49.758;6.120;2023-03-14T08:24:09;9.20;99.90
12911;DHT22;6523;49.758;6.120;2023-03-14T08:26:34;9.20;99.90
12911;DHT22;6523;49.758;6.120;2023-03-14T08:29:00;9.20;99.90
12911;DHT22;6523;49.758;6.120;2023-03-14T08:31:25;9.30;99.90
12911;DHT22;6523;49.758;6.120;2023-03-14T08:33:51;9.30;99.90
12911;DHT22;6523;49.758;6.120;2023-03-14T08:36:19;9.30;99.90
12911;DHT22;6523;49.758;6.120;2023-03-14T08:38:45;9.30;99.90
12911;DHT22;6523;49.758;6.120;2023-03-14T08:41:11;9.30;99.90
12911;DHT22;6523;49.758;6.120;2023-03-14T08:43:36;9.40;99.90
12911;DHT22;6523;49.758;6.120;2023-03-14T08:46:02;9.40;99.90
12911;DHT22;6523;49.758;6.120;2023-03-14T08:48:28;9.40;99.90
12911;DHT22;6523;49.758;6.120;2023-03-14T08:53:50;9.60;99.90
12911;DHT22;6523;49.758;6.120;2023-03-14T08:56:16;9.80;99.90
12911;DHT22;6523;49.758;6.120;2023-03-14T08:58:42;10.00;99.90
12911;DHT22;6523;49.758;6.120;2023-03-14T09:01:09;9.90;99.90
12911;DHT22;6523;49.758;6.120;2023-03-14T09:03:37;9.80;99.90
12911;DHT22;6523;49.758;6.120;2023-03-14T09:06:07;9.70;99.90
12911;DHT22;6523;49.758;6.120;2023-03-14T09:08:34;9.70;99.90
12911;DHT22;6523;49.758;6.120;2023-03-14T09:11:00;9.60;99.90
12911;DHT22;6523;49.758;6.120;2023-03-14T09:13:25;9.70;99.90
12911;DHT22;6523;49.758;6.120;2023-03-14T09:15:54;9.80;99.90
12911;DHT22;6523;49.758;6.120;2023-03-14T09:18:21;9.80;99.90
12911;DHT22;6523;49.758;6.120;2023-03-14T09:20:46;9.40;99.90
12911;DHT22;6523;49.758;6.120;2023-03-14T09:23:14;9.10;99.90
12911;DHT22;6523;49.758;6.120;2023-03-14T09:25:39;9.00;99.90
12911;DHT22;6523;49.758;6.120;2023-03-14T09:28:05;8.80;99.90
12911;DHT22;6523;49.758;6.120;2023-03-14T09:30:30;8.60;99.90
12911;DHT22;6523;49.758;6.120;2023-03-14T09:32:56;8.40;99.90
12911;DHT22;6523;49.758;6.120;2023-03-14T09:35:23;8.20;99.90
12911;DHT22;6523;49.758;6.120;2023-03-14T09:37:48;8.20;99.90
12911;DHT22;6523;49.758;6.120;2023-03-14T09:40:18;8.20;99.90
12911;DHT22;6523;49.758;6.120;2023-03-14T09:42:50;8.20;99.90
12911;DHT22;6523;49.758;6.120;2023-03-14T09:45:28;8.10;99.90
12911;DHT22;6523;49.758;6.120;2023-03-14T09:47:55;8.00;99.90
12911;DHT22;6523;49.758;6.120;2023-03-14T09:50:23;8.00;99.90
12911;DHT22;6523;49.758;6.120;2023-03-14T09:52:51;7.90;99.90
12911;DHT22;6523;49.758;6.120;2023-03-14T09:55:20;7.80;99.90
12911;DHT22;6523;49.758;6.120;2023-03-14T09:57:48;7.80;99.90
12911;DHT22;6523;49.758;6.120;2023-03-14T10:00:20;7.80;99.90
12911;DHT22;6523;49.758;6.120;2023-03-14T10:03:20;7.70;99.90
12911;DHT22;6523;49.758;6.120;2023-03-14T10:05:45;7.60;99.90
12911;DHT22;6523;49.758;6.120;2023-03-14T10:08:12;7.40;99.90
12911;DHT22;6523;49.758;6.120;2023-03-14T10:10:38;7.40;99.90
12911;DHT22;6523;49.758;6.120;2023-03-14T10:15:36;7.50;99.90
12911;DHT22;6523;49.758;6.120;2023-03-14T10:18:04;7.40;99.90
12911;DHT22;6523;49.758;6.120;2023-03-14T10:20:42;7.40;99.90
12911;DHT22;6523;49.758;6.120;2023-03-14T10:25:45;7.20;99.90
12911;DHT22;6523;49.758;6.120;2023-03-14T10:28:28;7.00;99.90
12911;DHT22;6523;49.758;6.120;2023-03-14T10:30:56;7.10;99.90
12911;DHT22;6523;49.758;6.120;2023-03-14T10:35:54;7.30;99.90
12911;DHT22;6523;49.758;6.120;2023-03-14T10:38:24;7.50;99.90
12911;DHT22;6523;49.758;6.120;2023-03-14T10:40:52;7.40;99.90
12911;DHT22;6523;49.758;6.120;2023-03-14T10:43:22;7.70;99.90
12911;DHT22;6523;49.758;6.120;2023-03-14T10:46:06;7.70;99.90
12911;DHT22;6523;49.758;6.120;2023-03-14T10:48:36;7.80;99.90
12911;DHT22;6523;49.758;6.120;2023-03-14T10:53:43;7.90;99.90
12911;DHT22;6523;49.758;6.120;2023-03-14T10:56:22;7.90;99.90
12911;DHT22;6523;49.758;6.120;2023-03-14T10:58:50;7.90;99.90
12911;DHT22;6523;49.758;6.120;2023-03-14T11:07:08;7.60;99.90
12911;DHT22;6523;49.758;6.120;2023-03-14T11:09:43;7.50;99.90
12911;DHT22;6523;49.758;6.120;2023-03-14T11:12:20;7.20;99.90
12911;DHT22;6523;49.758;6.120;2023-03-14T11:14:59;7.10;99.90
12911;DHT22;6523;49.758;6.120;2023-03-14T11:17:41;7.20;99.90
12911;DHT22;6523;49.758;6.120;2023-03-14T11:20:25;7.20;99.90
12911;DHT22;6523;49.758;6.120;2023-03-14T11:23:01;7.20;99.90
12911;DHT22;6523;49.758;6.120;2023-03-14T11:25:32;7.30;99.90
12911;DHT22;6523;49.758;6.120;2023-03-14T11:28:14;7.30;99.90
12911;DHT22;6523;49.758;6.120;2023-03-14T11:30:45;7.40;99.90
12911;DHT22;6523;49.758;6.120;2023-03-14T11:33:17;7.40;99.90
12911;DHT22;6523;49.758;6.120;2023-03-14T11:35:55;7.10;99.90
12911;DHT22;6523;49.758;6.120;2023-03-14T11:40:53;7.30;99.90
12911;DHT22;6523;49.758;6.120;2023-03-14T11:46:10;7.60;99.90
12911;DHT22;6523;49.758;6.120;2023-03-14T11:48:49;8.20;99.90
12911;DHT22;6523;49.758;6.120;2023-03-14T11:51:24;8.70;99.90
12911;DHT22;6523;49.758;6.120;2023-03-14T11:54:00;8.80;99.90
12911;DHT22;6523;49.758;6.120;2023-03-14T11:56:52;9.20;99.90
12911;DHT22;6523;49.758;6.120;2023-03-14T12:02:23;8.40;99.90
12911;DHT22;6523;49.758;6.120;2023-03-14T12:10:13;8.00;99.90
12911;DHT22;6523;49.758;6.120;2023-03-14T12:12:39;7.80;99.90
12911;DHT22;6523;49.758;6.120;2023-03-14T12:15:05;7.60;99.90
12911;DHT22;6523;49.758;6.120;2023-03-14T12:17:43;7.40;99.90
12911;DHT22;6523;49.758;6.120;2023-03-14T12:20:16;7.40;99.90
12911;DHT22;6523;49.758;6.120;2023-03-14T12:22:46;7.40;99.90
12911;DHT22;6523;49.758;6.120;2023-03-14T12:25:19;8.00;99.90
12911;DHT22;6523;49.758;6.120;2023-03-14T12:30:27;8.60;99.90
12911;DHT22;6523;49.758;6.120;2023-03-14T12:33:26;8.20;99.90
12911;DHT22;6523;49.758;6.120;2023-03-14T12:35:58;8.00;99.90
12911;DHT22;6523;49.758;6.120;2023-03-14T12:43:40;8.60;99.90
12911;DHT22;6523;49.758;6.120;2023-03-14T12:48:55;8.20;99.90
12911;DHT22;6523;49.758;6.120;2023-03-14T12:51:39;8.30;99.90
12911;DHT22;6523;49.758;6.120;2023-03-14T12:54:19;9.40;99.90
12911;DHT22;6523;49.758;6.120;2023-03-14T12:59:56;8.70;99.90
12911;DHT22;6523;49.758;6.120;2023-03-14T13:02:26;8.40;99.90
12911;DHT22;6523;49.758;6.120;2023-03-14T13:05:03;8.10;99.90
12911;DHT22;6523;49.758;6.120;2023-03-14T13:10:47;8.10;99.90
12911;DHT22;6523;49.758;6.120;2023-03-14T13:13:22;8.10;99.90
12911;DHT22;6523;49.758;6.120;2023-03-14T13:15:49;8.20;99.90
12911;DHT22;6523;49.758;6.120;2023-03-14T13:18:36;8.20;99.90
12911;DHT22;6523;49.758;6.120;2023-03-14T13:21:18;8.50;99.90
12911;DHT22;6523;49.758;6.120;2023-03-14T13:24:05;8.40;99.90
12911;DHT22;6523;49.758;6.120;2023-03-14T13:26:41;8.40;99.90
12911;DHT22;6523;49.758;6.120;2023-03-14T13:29:26;8.80;99.90
12911;DHT22;6523;49.758;6.120;2023-03-14T13:31:54;8.60;99.90
12911;DHT22;6523;49.758;6.120;2023-03-14T13:34:25;8.40;99.90
12911;DHT22;6523;49.758;6.120;2023-03-14T13:36:54;8.40;99.90
12911;DHT22;6523;49.758;6.120;2023-03-14T13:39:22;8.30;99.90
12911;DHT22;6523;49.758;6.120;2023-03-14T13:41:50;8.20;99.90
12911;DHT22;6523;49.758;6.120;2023-03-14T13:44:31;8.30;99.90
12911;DHT22;6523;49.758;6.120;2023-03-14T13:46:59;8.50;99.90
12911;DHT22;6523;49.758;6.120;2023-03-14T13:49:27;8.50;99.90
12911;DHT22;6523;49.758;6.120;2023-03-14T13:51:54;8.50;99.90
12911;DHT22;6523;49.758;6.120;2023-03-14T13:54:21;8.50;99.90
12911;DHT22;6523;49.758;6.120;2023-03-14T13:56:48;8.80;99.90
12911;DHT22;6523;49.758;6.120;2023-03-14T13:59:27;9.80;99.90
12911;DHT22;6523;49.758;6.120;2023-03-14T14:01:54;10.10;99.90
12911;DHT22;6523;49.758;6.120;2023-03-14T14:04:22;10.50;99.90
12911;DHT22;6523;49.758;6.120;2023-03-14T14:09:31;10.50;99.90
12911;DHT22;6523;49.758;6.120;2023-03-14T14:12:07;10.20;99.90
12911;DHT22;6523;49.758;6.120;2023-03-14T14:14:49;10.70;99.90
12911;DHT22;6523;49.758;6.120;2023-03-14T14:17:19;10.60;99.90
12911;DHT22;6523;49.758;6.120;2023-03-14T14:19:46;10.60;99.90
12911;DHT22;6523;49.758;6.120;2023-03-14T14:22:13;11.40;99.90
12911;DHT22;6523;49.758;6.120;2023-03-14T14:24:39;11.10;99.90
12911;DHT22;6523;49.758;6.120;2023-03-14T14:27:16;10.60;99.90
12911;DHT22;6523;49.758;6.120;2023-03-14T14:29:43;10.20;99.90
12911;DHT22;6523;49.758;6.120;2023-03-14T14:32:13;9.50;99.90
12911;DHT22;6523;49.758;6.120;2023-03-14T14:34:41;8.90;99.90
12911;DHT22;6523;49.758;6.120;2023-03-14T14:37:25;8.80;99.90
12911;DHT22;6523;49.758;6.120;2023-03-14T14:39:54;8.80;99.90
12911;DHT22;6523;49.758;6.120;2023-03-14T14:42:24;8.60;99.90
12911;DHT22;6523;49.758;6.120;2023-03-14T14:44:51;8.60;99.90
12911;DHT22;6523;49.758;6.120;2023-03-14T14:47:22;9.70;99.90
12911;DHT22;6523;49.758;6.120;2023-03-14T14:49:49;10.10;99.90
12911;DHT22;6523;49.758;6.120;2023-03-14T14:52:21;10.30;99.90
12911;DHT22;6523;49.758;6.120;2023-03-14T14:54:58;10.10;99.90
12911;DHT22;6523;49.758;6.120;2023-03-14T14:57:53;10.80;99.90
12911;DHT22;6523;49.758;6.120;2023-03-14T15:00:21;10.50;99.90
12911;DHT22;6523;49.758;6.120;2023-03-14T15:02:49;10.50;99.90
12911;DHT22;6523;49.758;6.120;2023-03-14T15:05:21;10.40;99.90
12911;DHT22;6523;49.758;6.120;2023-03-14T15:07:47;9.90;99.90
12911;DHT22;6523;49.758;6.120;2023-03-14T15:10:15;9.10;99.90
12911;DHT22;6523;49.758;6.120;2023-03-14T15:12:41;8.70;99.90
12911;DHT22;6523;49.758;6.120;2023-03-14T15:15:07;8.30;99.90
12911;DHT22;6523;49.758;6.120;2023-03-14T15:17:34;7.80;99.90
12911;DHT22;6523;49.758;6.120;2023-03-14T15:20:02;7.30;99.90
12911;DHT22;6523;49.758;6.120;2023-03-14T15:22:29;6.90;99.90
12911;DHT22;6523;49.758;6.120;2023-03-14T15:24:55;6.70;99.90
12911;DHT22;6523;49.758;6.120;2023-03-14T15:27:21;6.60;99.90
12911;DHT22;6523;49.758;6.120;2023-03-14T15:29:47;6.30;99.90
12911;DHT22;6523;49.758;6.120;2023-03-14T15:32:14;6.40;99.90
12911;DHT22;6523;49.758;6.120;2023-03-14T15:34:41;6.50;99.90
12911;DHT22;6523;49.758;6.120;2023-03-14T15:37:14;6.50;99.90
12911;DHT22;6523;49.758;6.120;2023-03-14T15:39:41;6.40;99.90
12911;DHT22;6523;49.758;6.120;2023-03-14T15:42:07;6.40;99.90
12911;DHT22;6523;49.758;6.120;2023-03-14T15:44:33;6.40;99.90
12911;DHT22;6523;49.758;6.120;2023-03-14T15:46:59;6.30;99.90
12911;DHT22;6523;49.758;6.120;2023-03-14T15:49:24;6.30;99.90
12911;DHT22;6523;49.758;6.120;2023-03-14T15:51:50;6.30;99.90
12911;DHT22;6523;49.758;6.120;2023-03-14T15:54:15;6.40;99.90
12911;DHT22;6523;49.758;6.120;2023-03-14T15:56:41;6.30;99.90
12911;DHT22;6523;49.758;6.120;2023-03-14T15:59:06;6.40;99.90
12911;DHT22;6523;49.758;6.120;2023-03-14T16:01:32;6.30;99.90
12911;DHT22;6523;49.758;6.120;2023-03-14T16:03:57;6.30;99.90
12911;DHT22;6523;49.758;6.120;2023-03-14T16:06:23;6.20;99.90
12911;DHT22;6523;49.758;6.120;2023-03-14T16:08:48;6.40;99.90
12911;DHT22;6523;49.758;6.120;2023-03-14T16:11:14;6.90;99.90
12911;DHT22;6523;49.758;6.120;2023-03-14T16:13:43;7.00;99.90
12911;DHT22;6523;49.758;6.120;2023-03-14T16:16:08;7.50;99.90
12911;DHT22;6523;49.758;6.120;2023-03-14T16:18:36;7.20;99.90
12911;DHT22;6523;49.758;6.120;2023-03-14T16:21:04;7.30;99.90
12911;DHT22;6523;49.758;6.120;2023-03-14T16:23:34;7.80;99.90
12911;DHT22;6523;49.758;6.120;2023-03-14T16:26:03;7.50;99.90
12911;DHT22;6523;49.758;6.120;2023-03-14T16:28:29;7.40;99.90
12911;DHT22;6523;49.758;6.120;2023-03-14T16:31:07;7.20;99.90
12911;DHT22;6523;49.758;6.120;2023-03-14T16:33:34;6.50;99.90
12911;DHT22;6523;49.758;6.120;2023-03-14T16:36:01;6.30;99.90
12911;DHT22;6523;49.758;6.120;2023-03-14T16:38:31;6.30;99.90
12911;DHT22;6523;49.758;6.120;2023-03-14T16:41:02;6.30;99.90
12911;DHT22;6523;49.758;6.120;2023-03-14T16:43:28;6.50;99.90
12911;DHT22;6523;49.758;6.120;2023-03-14T16:45:58;6.50;99.90
12911;DHT22;6523;49.758;6.120;2023-03-14T16:48:24;6.40;99.90
12911;DHT22;6523;49.758;6.120;2023-03-14T16:50:50;6.20;99.90
12911;DHT22;6523;49.758;6.120;2023-03-14T16:53:16;6.20;99.90
12911;DHT22;6523;49.758;6.120;2023-03-14T16:55:42;6.10;99.90
12911;DHT22;6523;49.758;6.120;2023-03-14T16:58:09;5.90;99.90
12911;DHT22;6523;49.758;6.120;2023-03-14T17:00:34;5.80;99.90
12911;DHT22;6523;49.758;6.120;2023-03-14T17:03:00;5.70;99.90
12911;DHT22;6523;49.758;6.120;2023-03-14T17:05:26;5.50;99.90
12911;DHT22;6523;49.758;6.120;2023-03-14T17:07:51;5.30;99.90